sensor_id;sensor_type;location;lat;lon;timestamp;P1;durP1;ratioP1;P2;durP2;ratioP2
29516;SDS011;40993;50.594;8.664;2022-08-21T00:01:49;15.05;;;10.25;;
29516;SDS011;40993;50.594;8.664;2022-08-21T00:04:17;19.90;;;10.20;;
29516;SDS011;40993;50.594;8.664;2022-08-21T00:06:48;12.50;;;9.57;;
29516;SDS011;40993;50.594;8.664;2022-08-21T00:09:16;12.15;;;9.63;;
29516;SDS011;40993;50.594;8.664;2022-08-21T00:11:44;15.13;;;10.07;;
29516;SDS011;40993;50.594;8.664;2022-08-21T00:14:12;12.00;;;9.68;;
29516;SDS011;40993;50.594;8.664;2022-08-21T00:16:39;15.35;;;9.82;;
29516;SDS011;40993;50.594;8.664;2022-08-21T00:19:07;19.40;;;9.77;;
29516;SDS011;40993;50.594;8.664;2022-08-21T00:21:35;12.68;;;9.43;;
29516;SDS011;40993;50.594;8.664;2022-08-21T00:24:04;16.05;;;9.05;;
29516;SDS011;40993;50.594;8.664;2022-08-21T00:26:32;12.63;;;9.38;;
29516;SDS011;40993;50.594;8.664;2022-08-21T00:29:02;12.93;;;9.23;;
29516;SDS011;40993;50.594;8.664;2022-08-21T00:31:30;16.58;;;9.30;;
29516;SDS011;40993;50.594;8.664;2022-08-21T00:33:57;13.88;;;8.82;;
29516;SDS011;40993;50.594;8.664;2022-08-21T00:36:26;12.77;;;9.10;;
29516;SDS011;40993;50.594;8.664;2022-08-21T00:38:53;14.63;;;8.75;;
29516;SDS011;40993;50.594;8.664;2022-08-21T00:41:22;13.77;;;8.40;;
29516;SDS011;40993;50.594;8.664;2022-08-21T00:44:03;14.30;;;9.00;;
29516;SDS011;40993;50.594;8.664;2022-08-21T00:46:31;10.98;;;8.75;;
29516;SDS011;40993;50.594;8.664;2022-08-21T00:48:58;14.55;;;9.00;;
29516;SDS011;40993;50.594;8.664;2022-08-21T00:51:30;12.52;;;8.63;;
29516;SDS011;40993;50.594;8.664;2022-08-21T00:54:04;14.85;;;8.27;;
29516;SDS011;40993;50.594;8.664;2022-08-21T00:56:45;12.38;;;9.27;;
29516;SDS011;40993;50.594;8.664;2022-08-21T00:59:13;14.45;;;8.15;;
29516;SDS011;40993;50.594;8.664;2022-08-21T01:01:40;14.65;;;8.18;;
29516;SDS011;40993;50.594;8.664;2022-08-21T01:04:08;13.45;;;7.90;;
29516;SDS011;40993;50.594;8.664;2022-08-21T01:06:35;11.60;;;7.70;;
29516;SDS011;40993;50.594;8.664;2022-08-21T01:09:03;12.25;;;8.55;;
29516;SDS011;40993;50.594;8.664;2022-08-21T01:11:30;14.65;;;8.43;;
29516;SDS011;40993;50.594;8.664;2022-08-21T01:13:59;13.52;;;7.53;;
29516;SDS011;40993;50.594;8.664;2022-08-21T01:16:27;11.23;;;7.57;;
29516;SDS011;40993;50.594;8.664;2022-08-21T01:18:55;10.48;;;7.80;;
29516;SDS011;40993;50.594;8.664;2022-08-21T01:21:25;14.35;;;7.90;;
29516;SDS011;40993;50.594;8.664;2022-08-21T01:23:54;12.80;;;7.78;;
29516;SDS011;40993;50.594;8.664;2022-08-21T01:26:24;10.93;;;7.78;;
29516;SDS011;40993;50.594;8.664;2022-08-21T01:29:00;10.80;;;7.50;;
29516;SDS011;40993;50.594;8.664;2022-08-21T01:31:30;9.75;;;6.78;;
29516;SDS011;40993;50.594;8.664;2022-08-21T01:33:59;12.18;;;6.82;;
29516;SDS011;40993;50.594;8.664;2022-08-21T01:36:28;11.60;;;6.90;;
29516;SDS011;40993;50.594;8.664;2022-08-21T01:38:56;11.25;;;7.53;;
29516;SDS011;40993;50.594;8.664;2022-08-21T01:41:23;10.32;;;7.22;;
29516;SDS011;40993;50.594;8.664;2022-08-21T01:43:51;10.98;;;7.53;;
29516;SDS011;40993;50.594;8.664;2022-08-21T01:46:18;11.63;;;7.47;;
29516;SDS011;40993;50.594;8.664;2022-08-21T01:48:45;10.55;;;6.93;;
29516;SDS011;40993;50.594;8.664;2022-08-21T01:51:13;11.27;;;7.30;;
29516;SDS011;40993;50.594;8.664;2022-08-21T01:53:42;12.50;;;7.10;;
29516;SDS011;40993;50.594;8.664;2022-08-21T01:56:10;12.43;;;7.45;;
29516;SDS011;40993;50.594;8.664;2022-08-21T01:58:40;12.95;;;7.57;;
29516;SDS011;40993;50.594;8.664;2022-08-21T02:01:07;11.60;;;7.20;;
29516;SDS011;40993;50.594;8.664;2022-08-21T02:03:35;15.02;;;7.85;;
29516;SDS011;40993;50.594;8.664;2022-08-21T02:06:03;13.20;;;7.45;;
29516;SDS011;40993;50.594;8.664;2022-08-21T02:08:31;15.23;;;7.07;;
29516;SDS011;40993;50.594;8.664;2022-08-21T02:11:00;10.70;;;7.40;;
29516;SDS011;40993;50.594;8.664;2022-08-21T02:13:27;19.90;;;7.75;;
29516;SDS011;40993;50.594;8.664;2022-08-21T02:15:55;8.18;;;6.25;;
29516;SDS011;40993;50.594;8.664;2022-08-21T02:18:22;14.82;;;6.70;;
29516;SDS011;40993;50.594;8.664;2022-08-21T02:20:50;11.38;;;6.05;;
29516;SDS011;40993;50.594;8.664;2022-08-21T02:23:21;9.82;;;5.55;;
29516;SDS011;40993;50.594;8.664;2022-08-21T02:25:52;10.30;;;5.97;;
29516;SDS011;40993;50.594;8.664;2022-08-21T02:28:21;11.02;;;6.10;;
29516;SDS011;40993;50.594;8.664;2022-08-21T02:30:50;12.77;;;5.65;;
29516;SDS011;40993;50.594;8.664;2022-08-21T02:33:18;12.27;;;5.90;;
29516;SDS011;40993;50.594;8.664;2022-08-21T02:35:47;11.65;;;5.15;;
29516;SDS011;40993;50.594;8.664;2022-08-21T02:38:16;9.55;;;5.57;;
29516;SDS011;40993;50.594;8.664;2022-08-21T02:40:46;16.88;;;5.40;;
29516;SDS011;40993;50.594;8.664;2022-08-21T02:43:16;10.52;;;5.18;;
29516;SDS011;40993;50.594;8.664;2022-08-21T02:45:46;10.73;;;5.80;;
29516;SDS011;40993;50.594;8.664;2022-08-21T02:48:15;16.52;;;5.63;;
29516;SDS011;40993;50.594;8.664;2022-08-21T02:50:44;12.15;;;5.70;;
29516;SDS011;40993;50.594;8.664;2022-08-21T02:53:14;14.55;;;5.70;;
29516;SDS011;40993;50.594;8.664;2022-08-21T02:55:43;17.08;;;5.70;;
29516;SDS011;40993;50.594;8.664;2022-08-21T02:58:11;14.40;;;5.60;;
29516;SDS011;40993;50.594;8.664;2022-08-21T03:00:40;10.05;;;5.50;;
29516;SDS011;40993;50.594;8.664;2022-08-21T03:03:09;20.90;;;5.85;;
29516;SDS011;40993;50.594;8.664;2022-08-21T03:05:37;11.02;;;5.53;;
29516;SDS011;40993;50.594;8.664;2022-08-21T03:08:05;10.13;;;5.25;;
29516;SDS011;40993;50.594;8.664;2022-08-21T03:10:35;10.68;;;4.78;;
29516;SDS011;40993;50.594;8.664;2022-08-21T03:13:03;11.75;;;5.00;;
29516;SDS011;40993;50.594;8.664;2022-08-21T03:15:30;12.32;;;5.30;;
29516;SDS011;40993;50.594;8.664;2022-08-21T03:17:58;11.32;;;5.20;;
29516;SDS011;40993;50.594;8.664;2022-08-21T03:20:27;14.18;;;5.53;;
29516;SDS011;40993;50.594;8.664;2022-08-21T03:22:58;11.68;;;5.32;;
29516;SDS011;40993;50.594;8.664;2022-08-21T03:25:26;10.75;;;4.80;;
29516;SDS011;40993;50.594;8.664;2022-08-21T03:28:07;10.57;;;4.97;;
29516;SDS011;40993;50.594;8.664;2022-08-21T03:30:38;14.20;;;5.05;;
29516;SDS011;40993;50.594;8.664;2022-08-21T03:33:06;10.77;;;4.97;;
29516;SDS011;40993;50.594;8.664;2022-08-21T03:35:34;14.27;;;4.85;;
29516;SDS011;40993;50.594;8.664;2022-08-21T03:38:02;11.02;;;4.97;;
29516;SDS011;40993;50.594;8.664;2022-08-21T03:40:30;15.38;;;4.57;;
29516;SDS011;40993;50.594;8.664;2022-08-21T03:42:57;8.07;;;4.35;;
29516;SDS011;40993;50.594;8.664;2022-08-21T03:45:25;10.88;;;4.90;;
29516;SDS011;40993;50.594;8.664;2022-08-21T03:47:54;10.68;;;4.60;;
29516;SDS011;40993;50.594;8.664;2022-08-21T03:50:23;9.50;;;4.45;;
29516;SDS011;40993;50.594;8.664;2022-08-21T03:52:53;14.43;;;4.75;;
29516;SDS011;40993;50.594;8.664;2022-08-21T03:55:21;13.18;;;4.88;;
29516;SDS011;40993;50.594;8.664;2022-08-21T03:57:49;13.57;;;4.50;;
29516;SDS011;40993;50.594;8.664;2022-08-21T04:00:17;12.75;;;4.40;;
29516;SDS011;40993;50.594;8.664;2022-08-21T04:02:45;11.27;;;4.43;;
29516;SDS011;40993;50.594;8.664;2022-08-21T04:05:13;9.23;;;4.57;;
29516;SDS011;40993;50.594;8.664;2022-08-21T04:07:55;9.07;;;4.25;;
29516;SDS011;40993;50.594;8.664;2022-08-21T04:10:24;10.40;;;4.70;;
29516;SDS011;40993;50.594;8.664;2022-08-21T04:12:52;14.63;;;5.35;;
29516;SDS011;40993;50.594;8.664;2022-08-21T04:15:20;11.00;;;4.53;;
29516;SDS011;40993;50.594;8.664;2022-08-21T04:17:48;12.27;;;5.15;;
29516;SDS011;40993;50.594;8.664;2022-08-21T04:20:15;9.07;;;4.90;;
29516;SDS011;40993;50.594;8.664;2022-08-21T04:22:44;11.48;;;4.68;;
29516;SDS011;40993;50.594;8.664;2022-08-21T04:25:14;11.43;;;4.47;;
29516;SDS011;40993;50.594;8.664;2022-08-21T04:27:42;7.85;;;4.47;;
29516;SDS011;40993;50.594;8.664;2022-08-21T04:30:10;11.25;;;4.40;;
29516;SDS011;40993;50.594;8.664;2022-08-21T04:32:41;11.10;;;4.13;;
29516;SDS011;40993;50.594;8.664;2022-08-21T04:35:09;12.98;;;3.85;;
29516;SDS011;40993;50.594;8.664;2022-08-21T04:37:37;11.02;;;4.03;;
29516;SDS011;40993;50.594;8.664;2022-08-21T04:40:08;11.55;;;4.22;;
29516;SDS011;40993;50.594;8.664;2022-08-21T04:42:42;7.97;;;3.72;;
29516;SDS011;40993;50.594;8.664;2022-08-21T04:45:15;6.85;;;3.47;;
29516;SDS011;40993;50.594;8.664;2022-08-21T04:47:46;8.75;;;3.70;;
29516;SDS011;40993;50.594;8.664;2022-08-21T04:50:18;13.15;;;3.78;;
29516;SDS011;40993;50.594;8.664;2022-08-21T04:53:02;10.52;;;3.65;;
29516;SDS011;40993;50.594;8.664;2022-08-21T04:55:29;11.93;;;4.20;;
29516;SDS011;40993;50.594;8.664;2022-08-21T04:57:58;14.80;;;4.38;;
29516;SDS011;40993;50.594;8.664;2022-08-21T05:00:26;12.93;;;4.10;;
29516;SDS011;40993;50.594;8.664;2022-08-21T05:02:53;10.27;;;3.90;;
29516;SDS011;40993;50.594;8.664;2022-08-21T05:05:25;10.38;;;4.00;;
29516;SDS011;40993;50.594;8.664;2022-08-21T05:07:55;11.57;;;4.10;;
29516;SDS011;40993;50.594;8.664;2022-08-21T05:10:23;12.55;;;4.30;;
29516;SDS011;40993;50.594;8.664;2022-08-21T05:12:51;11.43;;;4.10;;
29516;SDS011;40993;50.594;8.664;2022-08-21T05:15:20;19.27;;;4.13;;
29516;SDS011;40993;50.594;8.664;2022-08-21T05:17:48;10.88;;;3.95;;
29516;SDS011;40993;50.594;8.664;2022-08-21T05:20:25;9.82;;;3.63;;
29516;SDS011;40993;50.594;8.664;2022-08-21T05:22:53;14.73;;;4.18;;
29516;SDS011;40993;50.594;8.664;2022-08-21T05:25:21;14.57;;;3.42;;
29516;SDS011;40993;50.594;8.664;2022-08-21T05:27:49;8.00;;;3.38;;
29516;SDS011;40993;50.594;8.664;2022-08-21T05:30:17;10.88;;;3.38;;
29516;SDS011;40993;50.594;8.664;2022-08-21T05:32:46;11.55;;;3.65;;
29516;SDS011;40993;50.594;8.664;2022-08-21T05:35:14;10.40;;;3.10;;
29516;SDS011;40993;50.594;8.664;2022-08-21T05:37:42;9.50;;;3.45;;
29516;SDS011;40993;50.594;8.664;2022-08-21T05:40:09;12.10;;;3.92;;
29516;SDS011;40993;50.594;8.664;2022-08-21T05:42:47;11.35;;;3.05;;
29516;SDS011;40993;50.594;8.664;2022-08-21T05:45:20;11.23;;;3.65;;
29516;SDS011;40993;50.594;8.664;2022-08-21T05:48:09;11.73;;;3.53;;
29516;SDS011;40993;50.594;8.664;2022-08-21T05:50:38;7.57;;;3.30;;
29516;SDS011;40993;50.594;8.664;2022-08-21T05:53:05;9.38;;;3.08;;
29516;SDS011;40993;50.594;8.664;2022-08-21T05:55:33;7.85;;;2.83;;
29516;SDS011;40993;50.594;8.664;2022-08-21T05:58:09;13.30;;;3.65;;
29516;SDS011;40993;50.594;8.664;2022-08-21T06:00:37;11.60;;;3.40;;
29516;SDS011;40993;50.594;8.664;2022-08-21T06:03:05;14.15;;;3.40;;
29516;SDS011;40993;50.594;8.664;2022-08-21T06:05:39;14.23;;;3.88;;
29516;SDS011;40993;50.594;8.664;2022-08-21T06:08:07;9.98;;;3.55;;
29516;SDS011;40993;50.594;8.664;2022-08-21T06:10:34;12.23;;;3.65;;
29516;SDS011;40993;50.594;8.664;2022-08-21T06:13:01;17.35;;;3.83;;
29516;SDS011;40993;50.594;8.664;2022-08-21T06:15:29;10.63;;;3.20;;
29516;SDS011;40993;50.594;8.664;2022-08-21T06:17:56;13.00;;;3.60;;
29516;SDS011;40993;50.594;8.664;2022-08-21T06:20:25;12.52;;;3.35;;
29516;SDS011;40993;50.594;8.664;2022-08-21T06:22:52;9.32;;;3.22;;
29516;SDS011;40993;50.594;8.664;2022-08-21T06:25:20;14.63;;;3.45;;
29516;SDS011;40993;50.594;8.664;2022-08-21T06:27:47;11.07;;;2.90;;
29516;SDS011;40993;50.594;8.664;2022-08-21T06:30:15;11.80;;;2.80;;
29516;SDS011;40993;50.594;8.664;2022-08-21T06:32:42;10.48;;;3.05;;
29516;SDS011;40993;50.594;8.664;2022-08-21T06:35:10;8.10;;;2.83;;
29516;SDS011;40993;50.594;8.664;2022-08-21T06:37:39;8.68;;;2.90;;
29516;SDS011;40993;50.594;8.664;2022-08-21T06:40:07;14.07;;;3.08;;
29516;SDS011;40993;50.594;8.664;2022-08-21T06:42:38;10.65;;;3.08;;
29516;SDS011;40993;50.594;8.664;2022-08-21T06:45:08;10.68;;;2.70;;
29516;SDS011;40993;50.594;8.664;2022-08-21T06:47:35;12.38;;;3.03;;
29516;SDS011;40993;50.594;8.664;2022-08-21T06:50:04;13.68;;;3.33;;
29516;SDS011;40993;50.594;8.664;2022-08-21T06:52:33;11.60;;;2.72;;
29516;SDS011;40993;50.594;8.664;2022-08-21T06:55:02;6.90;;;2.40;;
29516;SDS011;40993;50.594;8.664;2022-08-21T06:57:32;9.82;;;2.53;;
29516;SDS011;40993;50.594;8.664;2022-08-21T06:59:59;12.48;;;2.80;;
29516;SDS011;40993;50.594;8.664;2022-08-21T07:02:27;8.48;;;2.50;;
29516;SDS011;40993;50.594;8.664;2022-08-21T07:04:54;8.27;;;2.60;;
29516;SDS011;40993;50.594;8.664;2022-08-21T07:07:22;12.77;;;2.55;;
29516;SDS011;40993;50.594;8.664;2022-08-21T07:09:49;9.90;;;2.95;;
29516;SDS011;40993;50.594;8.664;2022-08-21T07:12:18;8.27;;;2.70;;
29516;SDS011;40993;50.594;8.664;2022-08-21T07:14:46;8.00;;;2.10;;
29516;SDS011;40993;50.594;8.664;2022-08-21T07:17:14;6.63;;;2.60;;
29516;SDS011;40993;50.594;8.664;2022-08-21T07:19:42;10.23;;;2.72;;
29516;SDS011;40993;50.594;8.664;2022-08-21T07:22:09;8.15;;;2.47;;
29516;SDS011;40993;50.594;8.664;2022-08-21T07:24:36;11.10;;;3.13;;
29516;SDS011;40993;50.594;8.664;2022-08-21T07:27:04;11.75;;;2.65;;
29516;SDS011;40993;50.594;8.664;2022-08-21T07:29:36;10.32;;;2.70;;
29516;SDS011;40993;50.594;8.664;2022-08-21T07:32:04;12.88;;;2.83;;
29516;SDS011;40993;50.594;8.664;2022-08-21T07:34:32;13.05;;;3.00;;
29516;SDS011;40993;50.594;8.664;2022-08-21T07:36:59;10.40;;;2.83;;
29516;SDS011;40993;50.594;8.664;2022-08-21T07:39:35;8.45;;;2.60;;
29516;SDS011;40993;50.594;8.664;2022-08-21T07:42:03;14.75;;;2.78;;
29516;SDS011;40993;50.594;8.664;2022-08-21T07:44:33;8.50;;;2.42;;
29516;SDS011;40993;50.594;8.664;2022-08-21T07:47:02;10.43;;;2.70;;
29516;SDS011;40993;50.594;8.664;2022-08-21T07:49:30;8.30;;;2.53;;
29516;SDS011;40993;50.594;8.664;2022-08-21T07:51:57;12.85;;;2.65;;
29516;SDS011;40993;50.594;8.664;2022-08-21T07:54:25;8.75;;;2.47;;
29516;SDS011;40993;50.594;8.664;2022-08-21T07:56:59;12.02;;;2.80;;
29516;SDS011;40993;50.594;8.664;2022-08-21T07:59:27;10.00;;;2.38;;
29516;SDS011;40993;50.594;8.664;2022-08-21T08:01:55;9.68;;;2.47;;
29516;SDS011;40993;50.594;8.664;2022-08-21T08:04:23;7.45;;;2.38;;
29516;SDS011;40993;50.594;8.664;2022-08-21T08:06:51;8.85;;;2.28;;
29516;SDS011;40993;50.594;8.664;2022-08-21T08:09:19;6.43;;;1.83;;
29516;SDS011;40993;50.594;8.664;2022-08-21T08:11:46;18.30;;;11.07;;
29516;SDS011;40993;50.594;8.664;2022-08-21T08:14:14;11.60;;;4.63;;
29516;SDS011;40993;50.594;8.664;2022-08-21T08:16:41;6.25;;;2.15;;
29516;SDS011;40993;50.594;8.664;2022-08-21T08:19:09;6.55;;;1.88;;
29516;SDS011;40993;50.594;8.664;2022-08-21T08:21:38;8.52;;;1.98;;
29516;SDS011;40993;50.594;8.664;2022-08-21T08:24:06;7.43;;;1.90;;
29516;SDS011;40993;50.594;8.664;2022-08-21T08:26:44;8.13;;;2.00;;
29516;SDS011;40993;50.594;8.664;2022-08-21T08:29:19;5.35;;;1.83;;
29516;SDS011;40993;50.594;8.664;2022-08-21T08:31:47;10.60;;;2.00;;
29516;SDS011;40993;50.594;8.664;2022-08-21T08:34:14;6.75;;;2.05;;
29516;SDS011;40993;50.594;8.664;2022-08-21T08:36:52;6.22;;;1.95;;
29516;SDS011;40993;50.594;8.664;2022-08-21T08:39:20;5.95;;;1.88;;
29516;SDS011;40993;50.594;8.664;2022-08-21T08:41:56;7.32;;;1.85;;
29516;SDS011;40993;50.594;8.664;2022-08-21T08:44:26;9.40;;;2.22;;
29516;SDS011;40993;50.594;8.664;2022-08-21T08:46:55;7.15;;;1.90;;
29516;SDS011;40993;50.594;8.664;2022-08-21T08:49:27;10.40;;;2.17;;
29516;SDS011;40993;50.594;8.664;2022-08-21T08:52:02;4.95;;;1.58;;
29516;SDS011;40993;50.594;8.664;2022-08-21T08:54:31;8.15;;;2.08;;
29516;SDS011;40993;50.594;8.664;2022-08-21T08:57:01;9.85;;;2.35;;
29516;SDS011;40993;50.594;8.664;2022-08-21T08:59:31;5.75;;;1.92;;
29516;SDS011;40993;50.594;8.664;2022-08-21T09:02:01;9.82;;;2.42;;
29516;SDS011;40993;50.594;8.664;2022-08-21T09:04:29;8.40;;;1.85;;
29516;SDS011;40993;50.594;8.664;2022-08-21T09:07:04;7.40;;;1.95;;
29516;SDS011;40993;50.594;8.664;2022-08-21T09:09:40;4.55;;;1.60;;
29516;SDS011;40993;50.594;8.664;2022-08-21T09:12:15;4.68;;;1.90;;
29516;SDS011;40993;50.594;8.664;2022-08-21T09:14:50;9.00;;;1.95;;
29516;SDS011;40993;50.594;8.664;2022-08-21T09:17:30;7.90;;;2.22;;
29516;SDS011;40993;50.594;8.664;2022-08-21T09:20:08;5.75;;;2.13;;
29516;SDS011;40993;50.594;8.664;2022-08-21T09:22:46;9.52;;;2.20;;
29516;SDS011;40993;50.594;8.664;2022-08-21T09:25:22;7.30;;;2.08;;
29516;SDS011;40993;50.594;8.664;2022-08-21T09:27:51;5.53;;;2.25;;
29516;SDS011;40993;50.594;8.664;2022-08-21T09:30:19;5.68;;;2.00;;
29516;SDS011;40993;50.594;8.664;2022-08-21T09:32:51;4.72;;;1.80;;
29516;SDS011;40993;50.594;8.664;2022-08-21T09:35:19;5.25;;;1.80;;
29516;SDS011;40993;50.594;8.664;2022-08-21T09:37:51;10.70;;;4.70;;
29516;SDS011;40993;50.594;8.664;2022-08-21T09:40:23;18.85;;;12.48;;
29516;SDS011;40993;50.594;8.664;2022-08-21T09:42:57;8.45;;;2.10;;
29516;SDS011;40993;50.594;8.664;2022-08-21T09:45:26;6.90;;;2.00;;
29516;SDS011;40993;50.594;8.664;2022-08-21T09:48:07;6.95;;;1.90;;
29516;SDS011;40993;50.594;8.664;2022-08-21T09:50:36;6.30;;;1.95;;
29516;SDS011;40993;50.594;8.664;2022-08-21T09:53:13;8.82;;;2.00;;
29516;SDS011;40993;50.594;8.664;2022-08-21T09:55:46;4.93;;;2.20;;
29516;SDS011;40993;50.594;8.664;2022-08-21T09:58:34;7.20;;;2.20;;
29516;SDS011;40993;50.594;8.664;2022-08-21T10:01:04;10.10;;;2.10;;
29516;SDS011;40993;50.594;8.664;2022-08-21T10:03:32;7.10;;;2.15;;
29516;SDS011;40993;50.594;8.664;2022-08-21T10:06:01;7.53;;;2.22;;
29516;SDS011;40993;50.594;8.664;2022-08-21T10:08:36;4.45;;;1.52;;
29516;SDS011;40993;50.594;8.664;2022-08-21T10:11:05;7.80;;;2.10;;
29516;SDS011;40993;50.594;8.664;2022-08-21T10:13:38;7.40;;;2.33;;
29516;SDS011;40993;50.594;8.664;2022-08-21T10:16:15;10.52;;;2.33;;
29516;SDS011;40993;50.594;8.664;2022-08-21T10:18:55;6.50;;;2.00;;
29516;SDS011;40993;50.594;8.664;2022-08-21T10:21:30;5.28;;;1.95;;
29516;SDS011;40993;50.594;8.664;2022-08-21T10:24:04;7.75;;;2.28;;
29516;SDS011;40993;50.594;8.664;2022-08-21T10:26:37;8.25;;;2.03;;
29516;SDS011;40993;50.594;8.664;2022-08-21T10:29:14;8.02;;;1.90;;
29516;SDS011;40993;50.594;8.664;2022-08-21T10:31:52;5.90;;;1.75;;
29516;SDS011;40993;50.594;8.664;2022-08-21T10:34:29;8.35;;;2.17;;
29516;SDS011;40993;50.594;8.664;2022-08-21T10:37:07;5.07;;;1.90;;
29516;SDS011;40993;50.594;8.664;2022-08-21T10:39:49;9.13;;;4.45;;
29516;SDS011;40993;50.594;8.664;2022-08-21T10:42:27;9.95;;;3.15;;
29516;SDS011;40993;50.594;8.664;2022-08-21T10:45:01;6.50;;;2.10;;
29516;SDS011;40993;50.594;8.664;2022-08-21T10:47:35;6.20;;;1.90;;
29516;SDS011;40993;50.594;8.664;2022-08-21T10:50:06;5.40;;;2.05;;
29516;SDS011;40993;50.594;8.664;2022-08-21T10:52:42;4.90;;;1.85;;
29516;SDS011;40993;50.594;8.664;2022-08-21T10:55:21;8.10;;;1.85;;
29516;SDS011;40993;50.594;8.664;2022-08-21T10:57:50;13.55;;;2.28;;
29516;SDS011;40993;50.594;8.664;2022-08-21T11:00:26;4.70;;;1.77;;
29516;SDS011;40993;50.594;8.664;2022-08-21T11:02:57;9.65;;;2.08;;
29516;SDS011;40993;50.594;8.664;2022-08-21T11:07:59;7.80;;;2.15;;
29516;SDS011;40993;50.594;8.664;2022-08-21T11:10:32;5.27;;;2.00;;
29516;SDS011;40993;50.594;8.664;2022-08-21T11:13:17;5.82;;;1.90;;
29516;SDS011;40993;50.594;8.664;2022-08-21T11:15:56;8.63;;;2.30;;
29516;SDS011;40993;50.594;8.664;2022-08-21T11:18:28;4.55;;;1.90;;
29516;SDS011;40993;50.594;8.664;2022-08-21T11:21:02;6.78;;;2.10;;
29516;SDS011;40993;50.594;8.664;2022-08-21T11:23:40;7.90;;;1.90;;
29516;SDS011;40993;50.594;8.664;2022-08-21T11:26:11;6.30;;;1.83;;
29516;SDS011;40993;50.594;8.664;2022-08-21T11:28:43;5.38;;;2.17;;
29516;SDS011;40993;50.594;8.664;2022-08-21T11:31:17;6.90;;;2.25;;
29516;SDS011;40993;50.594;8.664;2022-08-21T11:33:55;6.13;;;2.08;;
29516;SDS011;40993;50.594;8.664;2022-08-21T11:36:29;5.43;;;2.03;;
29516;SDS011;40993;50.594;8.664;2022-08-21T11:39:02;5.18;;;2.05;;
29516;SDS011;40993;50.594;8.664;2022-08-21T11:41:37;5.35;;;2.10;;
29516;SDS011;40993;50.594;8.664;2022-08-21T11:44:10;5.40;;;1.90;;
29516;SDS011;40993;50.594;8.664;2022-08-21T11:46:44;5.35;;;1.85;;
29516;SDS011;40993;50.594;8.664;2022-08-21T11:49:21;6.13;;;2.03;;
29516;SDS011;40993;50.594;8.664;2022-08-21T11:51:55;4.57;;;1.73;;
29516;SDS011;40993;50.594;8.664;2022-08-21T11:54:30;8.32;;;2.00;;
29516;SDS011;40993;50.594;8.664;2022-08-21T11:59:32;7.05;;;2.10;;
29516;SDS011;40993;50.594;8.664;2022-08-21T12:02:06;7.78;;;1.92;;
29516;SDS011;40993;50.594;8.664;2022-08-21T12:04:42;4.57;;;2.00;;
29516;SDS011;40993;50.594;8.664;2022-08-21T12:07:13;6.50;;;2.00;;
29516;SDS011;40993;50.594;8.664;2022-08-21T12:09:51;5.28;;;1.92;;
29516;SDS011;40993;50.594;8.664;2022-08-21T12:12:25;6.90;;;2.00;;
29516;SDS011;40993;50.594;8.664;2022-08-21T12:15:06;4.78;;;1.75;;
29516;SDS011;40993;50.594;8.664;2022-08-21T12:17:50;5.50;;;1.80;;
29516;SDS011;40993;50.594;8.664;2022-08-21T12:20:23;3.40;;;1.65;;
29516;SDS011;40993;50.594;8.664;2022-08-21T12:23:01;4.60;;;1.70;;
29516;SDS011;40993;50.594;8.664;2022-08-21T12:25:38;3.80;;;1.55;;
29516;SDS011;40993;50.594;8.664;2022-08-21T12:28:09;6.47;;;1.60;;
29516;SDS011;40993;50.594;8.664;2022-08-21T12:30:39;3.88;;;1.77;;
29516;SDS011;40993;50.594;8.664;2022-08-21T12:33:18;4.15;;;1.65;;
29516;SDS011;40993;50.594;8.664;2022-08-21T12:35:48;4.57;;;1.60;;
29516;SDS011;40993;50.594;8.664;2022-08-21T12:38:17;4.90;;;1.58;;
29516;SDS011;40993;50.594;8.664;2022-08-21T12:40:53;3.92;;;1.70;;
29516;SDS011;40993;50.594;8.664;2022-08-21T12:43:25;3.08;;;1.40;;
29516;SDS011;40993;50.594;8.664;2022-08-21T12:45:55;4.73;;;1.30;;
29516;SDS011;40993;50.594;8.664;2022-08-21T12:48:26;4.03;;;1.60;;
29516;SDS011;40993;50.594;8.664;2022-08-21T12:50:57;2.75;;;1.60;;
29516;SDS011;40993;50.594;8.664;2022-08-21T12:53:28;9.05;;;1.58;;
29516;SDS011;40993;50.594;8.664;2022-08-21T12:55:57;4.82;;;1.30;;
29516;SDS011;40993;50.594;8.664;2022-08-21T12:58:31;2.65;;;1.30;;
29516;SDS011;40993;50.594;8.664;2022-08-21T13:01:00;2.67;;;1.35;;
29516;SDS011;40993;50.594;8.664;2022-08-21T13:03:29;5.43;;;1.60;;
29516;SDS011;40993;50.594;8.664;2022-08-21T13:05:57;4.32;;;1.60;;
29516;SDS011;40993;50.594;8.664;2022-08-21T13:08:25;5.57;;;1.70;;
29516;SDS011;40993;50.594;8.664;2022-08-21T13:10:56;3.38;;;1.52;;
29516;SDS011;40993;50.594;8.664;2022-08-21T13:13:40;3.05;;;1.30;;
29516;SDS011;40993;50.594;8.664;2022-08-21T13:16:18;4.32;;;1.58;;
29516;SDS011;40993;50.594;8.664;2022-08-21T13:18:52;5.88;;;3.10;;
29516;SDS011;40993;50.594;8.664;2022-08-21T13:21:21;4.13;;;1.25;;
29516;SDS011;40993;50.594;8.664;2022-08-21T13:23:48;2.47;;;1.20;;
29516;SDS011;40993;50.594;8.664;2022-08-21T13:26:16;2.28;;;1.10;;
29516;SDS011;40993;50.594;8.664;2022-08-21T13:28:47;3.50;;;1.60;;
29516;SDS011;40993;50.594;8.664;2022-08-21T13:31:16;3.25;;;1.40;;
29516;SDS011;40993;50.594;8.664;2022-08-21T13:33:56;3.67;;;1.30;;
29516;SDS011;40993;50.594;8.664;2022-08-21T13:36:24;3.80;;;1.52;;
29516;SDS011;40993;50.594;8.664;2022-08-21T13:38:53;3.13;;;1.40;;
29516;SDS011;40993;50.594;8.664;2022-08-21T13:41:21;3.75;;;1.40;;
29516;SDS011;40993;50.594;8.664;2022-08-21T13:43:57;2.80;;;1.38;;
29516;SDS011;40993;50.594;8.664;2022-08-21T13:46:27;3.28;;;1.50;;
29516;SDS011;40993;50.594;8.664;2022-08-21T13:48:56;4.90;;;1.30;;
29516;SDS011;40993;50.594;8.664;2022-08-21T13:51:25;4.05;;;1.45;;
29516;SDS011;40993;50.594;8.664;2022-08-21T13:53:53;3.30;;;1.50;;
29516;SDS011;40993;50.594;8.664;2022-08-21T13:56:22;3.67;;;1.40;;
29516;SDS011;40993;50.594;8.664;2022-08-21T13:58:51;4.65;;;1.60;;
29516;SDS011;40993;50.594;8.664;2022-08-21T14:01:21;7.07;;;1.48;;
29516;SDS011;40993;50.594;8.664;2022-08-21T14:03:52;2.30;;;1.23;;
29516;SDS011;40993;50.594;8.664;2022-08-21T14:06:22;2.85;;;1.50;;
29516;SDS011;40993;50.594;8.664;2022-08-21T14:08:52;4.75;;;1.40;;
29516;SDS011;40993;50.594;8.664;2022-08-21T14:11:21;7.97;;;1.45;;
29516;SDS011;40993;50.594;8.664;2022-08-21T14:13:49;7.43;;;1.70;;
29516;SDS011;40993;50.594;8.664;2022-08-21T14:16:24;4.65;;;1.52;;
29516;SDS011;40993;50.594;8.664;2022-08-21T14:18:53;4.57;;;1.45;;
29516;SDS011;40993;50.594;8.664;2022-08-21T14:21:36;3.40;;;1.70;;
29516;SDS011;40993;50.594;8.664;2022-08-21T14:24:06;4.18;;;1.50;;
29516;SDS011;40993;50.594;8.664;2022-08-21T14:26:36;8.73;;;1.75;;
29516;SDS011;40993;50.594;8.664;2022-08-21T14:29:09;4.80;;;1.60;;
29516;SDS011;40993;50.594;8.664;2022-08-21T14:31:37;3.17;;;1.75;;
29516;SDS011;40993;50.594;8.664;2022-08-21T14:34:09;6.18;;;1.60;;
29516;SDS011;40993;50.594;8.664;2022-08-21T14:36:45;6.07;;;2.50;;
29516;SDS011;40993;50.594;8.664;2022-08-21T14:39:13;8.52;;;2.67;;
29516;SDS011;40993;50.594;8.664;2022-08-21T14:41:40;7.35;;;2.00;;
29516;SDS011;40993;50.594;8.664;2022-08-21T14:44:08;5.72;;;1.90;;
29516;SDS011;40993;50.594;8.664;2022-08-21T14:46:37;6.88;;;2.42;;
29516;SDS011;40993;50.594;8.664;2022-08-21T14:49:22;6.25;;;2.10;;
29516;SDS011;40993;50.594;8.664;2022-08-21T14:51:52;5.38;;;1.90;;
29516;SDS011;40993;50.594;8.664;2022-08-21T14:54:23;8.65;;;2.22;;
29516;SDS011;40993;50.594;8.664;2022-08-21T14:56:56;11.32;;;2.30;;
29516;SDS011;40993;50.594;8.664;2022-08-21T14:59:24;3.95;;;1.80;;
29516;SDS011;40993;50.594;8.664;2022-08-21T15:01:53;8.60;;;2.15;;
29516;SDS011;40993;50.594;8.664;2022-08-21T15:04:22;6.50;;;2.10;;
29516;SDS011;40993;50.594;8.664;2022-08-21T15:06:49;6.55;;;1.73;;